createdAt,value
2022-09-30T00:01:03.233Z,76.80
2022-09-30T00:04:52.105Z,75.60
2022-09-30T00:08:34.377Z,75.90
2022-09-30T00:12:18.112Z,75.60
2022-09-30T00:16:00.863Z,75.50
2022-09-30T00:19:43.102Z,75.40
2022-09-30T00:23:26.248Z,75.40
2022-09-30T00:27:08.474Z,75.40
2022-09-30T00:30:50.705Z,75.40
2022-09-30T00:34:33.278Z,75.40
2022-09-30T00:38:15.795Z,75.80
2022-09-30T00:42:00.894Z,75.60
2022-09-30T00:45:54.808Z,75.40
2022-09-30T00:49:37.024Z,75.90
2022-09-30T00:53:47.556Z,75.80
2022-09-30T00:57:31.566Z,76.90
2022-09-30T01:01:14.496Z,75.80
2022-09-30T01:04:58.013Z,76.00
2022-09-30T01:08:40.856Z,76.00
2022-09-30T01:12:27.225Z,76.10
2022-09-30T01:17:07.127Z,76.10
2022-09-30T01:20:52.313Z,77.20
2022-09-30T01:24:43.411Z,76.10
2022-09-30T01:28:47.493Z,76.30
2022-09-30T01:32:53.666Z,77.10
2022-09-30T01:36:44.716Z,76.80
2022-09-30T01:40:49.299Z,76.20
2022-09-30T01:45:10.745Z,77.10
2022-09-30T01:48:55.734Z,77.30
2022-09-30T01:52:49.205Z,76.30
2022-09-30T01:56:48.479Z,76.30
2022-09-30T02:00:58.548Z,77.10
2022-09-30T02:04:49.690Z,77.30
2022-09-30T02:08:51.373Z,76.50
2022-09-30T02:12:39.355Z,76.60
2022-09-30T02:16:29.523Z,76.50
2022-09-30T02:20:30.228Z,76.60
2022-09-30T02:24:17.451Z,76.90
2022-09-30T02:28:05.615Z,76.90
2022-09-30T02:31:53.528Z,76.90
2022-09-30T02:36:21.706Z,77.00
2022-09-30T02:40:34.575Z,78.10
2022-09-30T02:44:17.196Z,77.00
2022-09-30T02:48:38.734Z,76.90
2022-09-30T02:52:33.607Z,76.90
2022-09-30T02:56:34.800Z,77.20
2022-09-30T03:00:17.009Z,77.50
2022-09-30T03:04:05.195Z,79.00
2022-09-30T03:07:47.433Z,77.30
2022-09-30T03:11:31.733Z,77.30
2022-09-30T03:15:36.450Z,77.10
2022-09-30T03:19:37.846Z,78.20
2022-09-30T03:23:31.933Z,78.50
2022-09-30T03:27:25.767Z,77.60
2022-09-30T03:31:27.854Z,77.60
2022-09-30T03:35:26.458Z,78.70
2022-09-30T03:39:21.187Z,77.90
2022-09-30T03:43:26.096Z,78.70
2022-09-30T03:47:11.448Z,78.80
2022-09-30T03:51:07.951Z,78.10
2022-09-30T03:54:54.387Z,78.70
2022-09-30T03:58:47.640Z,78.00
2022-09-30T04:02:30.012Z,78.10
2022-09-30T04:06:15.183Z,78.10
2022-09-30T04:09:57.337Z,77.90
2022-09-30T04:13:39.859Z,78.10
2022-09-30T04:17:22.091Z,78.20
2022-09-30T04:21:13.197Z,78.20
2022-09-30T04:24:56.715Z,78.50
2022-09-30T04:28:40.140Z,78.60
2022-09-30T04:32:23.516Z,78.30
2022-09-30T04:36:06.683Z,78.50
2022-09-30T04:39:49.498Z,78.90
2022-09-30T04:44:06.647Z,78.40
2022-09-30T04:47:48.770Z,79.50
2022-09-30T04:51:32.985Z,78.30
2022-09-30T04:55:15.222Z,78.80
2022-09-30T04:58:57.730Z,78.70
2022-09-30T05:02:40.072Z,78.80
2022-09-30T05:06:22.443Z,78.90
2022-09-30T05:10:05.054Z,79.00
2022-09-30T05:13:48.619Z,79.40
2022-09-30T05:17:31.889Z,79.50
2022-09-30T05:21:15.897Z,79.60
2022-09-30T05:24:59.074Z,79.50
2022-09-30T05:28:42.873Z,79.50
2022-09-30T05:32:25.595Z,79.60
2022-09-30T05:36:16.742Z,79.70
2022-09-30T05:39:59.783Z,80.20
2022-09-30T05:43:45.687Z,80.00
2022-09-30T05:47:28.563Z,79.60
2022-09-30T05:51:14.046Z,80.00
2022-09-30T05:54:58.918Z,80.10
2022-09-30T05:58:43.004Z,80.40
2022-09-30T06:02:25.552Z,80.30
2022-09-30T06:06:08.479Z,80.40
2022-09-30T06:09:52.290Z,80.30
2022-09-30T06:13:35.685Z,80.30
2022-09-30T06:17:19.016Z,80.40
2022-09-30T06:21:06.646Z,80.50
2022-09-30T06:24:54.180Z,80.50
2022-09-30T06:28:40.954Z,80.50
2022-09-30T06:32:23.417Z,80.60
2022-09-30T06:36:06.937Z,81.80
2022-09-30T06:39:50.740Z,83.90
2022-09-30T06:43:34.831Z,85.30
2022-09-30T06:47:26.257Z,86.20
2022-09-30T06:51:12.558Z,86.40
2022-09-30T06:54:56.996Z,84.20
2022-09-30T06:58:40.748Z,84.20
2022-09-30T07:02:23.184Z,85.70
2022-09-30T07:06:06.834Z,86.40
2022-09-30T07:09:54.406Z,86.20
2022-09-30T07:13:40.244Z,83.90
2022-09-30T07:17:22.802Z,83.20
2022-09-30T07:21:06.401Z,79.00
2022-09-30T07:24:49.051Z,76.00
2022-09-30T07:28:40.695Z,75.90
2022-09-30T07:32:23.344Z,75.80
2022-09-30T07:36:08.716Z,75.00
2022-09-30T07:39:50.970Z,74.60
2022-09-30T07:43:38.919Z,74.30
2022-09-30T07:47:21.278Z,74.20
2022-09-30T07:51:04.103Z,74.20
2022-09-30T07:55:05.511Z,74.50
2022-09-30T07:58:48.960Z,75.90
2022-09-30T08:02:31.347Z,75.10
2022-09-30T08:06:19.108Z,75.30
2022-09-30T08:10:04.489Z,75.80
2022-09-30T08:13:54.993Z,76.10
2022-09-30T08:17:36.999Z,76.70
2022-09-30T08:21:19.216Z,77.70
2022-09-30T08:25:02.402Z,76.50
2022-09-30T08:28:48.632Z,76.10
2022-09-30T08:32:31.530Z,75.90
2022-09-30T08:36:19.399Z,75.60
2022-09-30T08:40:01.603Z,75.50
2022-09-30T08:44:01.467Z,75.40
2022-09-30T08:48:09.693Z,75.60
2022-09-30T08:51:53.829Z,75.90
2022-09-30T08:55:46.617Z,75.60
2022-09-30T08:59:37.245Z,76.20
2022-09-30T09:03:21.110Z,76.20
2022-09-30T09:07:14.347Z,75.90
2022-09-30T09:11:09.236Z,75.90
2022-09-30T09:14:57.581Z,76.10
2022-09-30T09:18:47.471Z,76.20
2022-09-30T09:22:31.860Z,76.10
2022-09-30T09:26:16.040Z,75.70
2022-09-30T09:30:11.387Z,75.60
2022-09-30T09:34:01.601Z,75.90
2022-09-30T09:38:22.370Z,76.10
2022-09-30T09:42:35.401Z,76.80
2022-09-30T09:46:50.666Z,76.90
2022-09-30T09:51:09.135Z,76.90
2022-09-30T09:54:53.753Z,76.30
2022-09-30T09:58:36.729Z,76.40
2022-09-30T10:02:24.866Z,76.60
2022-09-30T10:06:13.691Z,76.80
2022-09-30T10:10:30.546Z,76.80
2022-09-30T10:14:19.832Z,77.10
2022-09-30T10:18:02.641Z,76.80
2022-09-30T10:21:45.060Z,76.40
2022-09-30T10:25:28.717Z,76.40
2022-09-30T10:29:35.695Z,76.30
2022-09-30T10:33:36.979Z,76.20
2022-09-30T10:37:23.475Z,75.50
2022-09-30T10:41:06.709Z,75.60
2022-09-30T10:45:18.814Z,75.80
2022-09-30T10:49:25.263Z,75.80
2022-09-30T10:53:17.442Z,75.80
2022-09-30T10:57:05.785Z,76.00
2022-09-30T11:01:22.874Z,76.30
2022-09-30T11:05:18.957Z,76.00
2022-09-30T11:09:12.984Z,74.80
2022-09-30T11:13:01.148Z,74.90
2022-09-30T11:17:23.991Z,74.80
2022-09-30T11:21:23.621Z,74.10
2022-09-30T11:25:10.900Z,73.40
2022-09-30T11:29:12.057Z,73.50
2022-09-30T11:33:00.927Z,73.80
2022-09-30T11:37:06.220Z,74.00
2022-09-30T11:41:28.817Z,73.40
2022-09-30T11:45:37.141Z,73.50
2022-09-30T11:49:43.470Z,73.70
2022-09-30T11:53:38.078Z,73.60
2022-09-30T11:57:32.725Z,73.50
2022-09-30T12:01:33.574Z,73.10
2022-09-30T12:05:27.676Z,73.00
2022-09-30T12:09:27.115Z,72.70
2022-09-30T12:13:18.780Z,73.10
2022-09-30T12:17:05.054Z,72.90
2022-09-30T12:20:54.453Z,73.20
2022-09-30T12:24:39.195Z,73.50
2022-09-30T12:28:54.176Z,73.60
2022-09-30T12:32:55.018Z,73.70
2022-09-30T12:36:53.577Z,74.00
2022-09-30T12:41:12.113Z,74.80
2022-09-30T12:45:18.687Z,76.20
2022-09-30T12:49:05.760Z,75.80
2022-09-30T12:52:48.712Z,75.20
2022-09-30T12:56:32.339Z,75.70
2022-09-30T13:00:21.013Z,75.70
2022-09-30T13:04:03.017Z,75.80
2022-09-30T13:08:09.523Z,76.00
2022-09-30T13:12:00.598Z,77.60
2022-09-30T13:15:46.719Z,76.70
2022-09-30T13:19:41.199Z,76.10
2022-09-30T13:23:42.916Z,77.00
2022-09-30T13:28:02.314Z,77.80
2022-09-30T13:31:50.750Z,76.90
2022-09-30T13:35:46.361Z,76.40
2022-09-30T13:39:34.180Z,76.40
2022-09-30T13:43:47.989Z,76.60
2022-09-30T13:47:40.616Z,77.00
2022-09-30T13:51:27.318Z,77.80
2022-09-30T13:55:18.611Z,76.80
2022-09-30T13:59:19.712Z,77.90
2022-09-30T14:03:23.854Z,79.20
2022-09-30T14:11:25.194Z,78.10
2022-09-30T14:15:27.979Z,79.40
2022-09-30T14:19:19.377Z,78.60
2022-09-30T14:23:10.499Z,78.20
2022-09-30T14:27:35.888Z,78.00
2022-09-30T14:31:19.398Z,79.20
2022-09-30T14:35:06.103Z,78.60
2022-09-30T14:38:52.560Z,78.50
2022-09-30T14:42:38.787Z,78.30
2022-09-30T14:46:48.751Z,78.70
2022-09-30T14:50:45.017Z,81.60
2022-09-30T14:54:30.708Z,79.90
2022-09-30T14:58:24.806Z,80.00
2022-09-30T15:02:22.436Z,79.80
2022-09-30T15:06:05.967Z,80.90
2022-09-30T15:09:50.323Z,79.60
2022-09-30T15:13:37.858Z,79.90
2022-09-30T15:17:22.404Z,80.40
2022-09-30T15:21:14.990Z,79.70
2022-09-30T15:24:59.869Z,81.30
2022-09-30T15:28:44.231Z,80.30
2022-09-30T15:32:33.017Z,80.30
2022-09-30T15:36:18.722Z,80.70
2022-09-30T15:40:20.718Z,80.30
2022-09-30T15:44:04.237Z,80.40
2022-09-30T15:48:02.424Z,81.60
2022-09-30T15:51:46.319Z,82.40
2022-09-30T15:55:43.975Z,82.10
2022-09-30T15:59:57.874Z,82.40
2022-09-30T16:03:46.519Z,83.00
2022-09-30T16:07:31.111Z,81.30
2022-09-30T16:11:36.716Z,81.50
2022-09-30T16:15:18.759Z,84.60
2022-09-30T16:19:02.635Z,82.00
2022-09-30T16:22:56.435Z,81.50
2022-09-30T16:26:45.502Z,82.50
2022-09-30T16:30:29.018Z,81.80
2022-09-30T16:34:31.258Z,81.60
2022-09-30T16:38:15.247Z,84.20
2022-09-30T16:41:57.212Z,81.60
2022-09-30T16:45:40.560Z,82.20
2022-09-30T16:49:22.588Z,81.70
2022-09-30T16:53:04.865Z,82.10
2022-09-30T16:56:46.873Z,82.10
2022-09-30T17:00:29.279Z,82.00
2022-09-30T17:04:14.133Z,82.00
2022-09-30T17:08:00.010Z,82.40
2022-09-30T17:11:42.109Z,82.40
2022-09-30T17:15:24.114Z,82.10
2022-09-30T17:19:06.074Z,82.50
2022-09-30T17:22:48.171Z,82.40
2022-09-30T17:26:30.275Z,82.20
2022-09-30T17:30:12.646Z,82.90
2022-09-30T17:33:54.770Z,82.30
2022-09-30T17:37:42.532Z,82.40
2022-09-30T17:41:47.690Z,83.00
2022-09-30T17:45:29.674Z,82.80
2022-09-30T17:49:13.094Z,83.10
2022-09-30T17:52:55.117Z,83.50
2022-09-30T17:56:40.251Z,84.10
2022-09-30T18:00:23.278Z,85.20
2022-09-30T18:04:05.390Z,84.90
2022-09-30T18:07:47.640Z,83.60
2022-09-30T18:11:31.203Z,83.70
2022-09-30T18:15:16.503Z,83.80
2022-09-30T18:19:04.756Z,83.80
2022-09-30T18:22:47.056Z,84.30
2022-09-30T18:26:33.348Z,84.40
2022-09-30T18:30:21.078Z,84.40
2022-09-30T18:34:05.051Z,84.30
2022-09-30T18:37:50.471Z,85.00
2022-09-30T18:41:34.555Z,84.90
2022-09-30T18:45:17.779Z,84.90
2022-09-30T18:49:00.137Z,85.10
2022-09-30T18:52:42.120Z,85.30
2022-09-30T18:56:32.466Z,85.20
2022-09-30T19:00:14.485Z,85.20
2022-09-30T19:03:56.436Z,88.20
2022-09-30T19:07:41.729Z,85.00
2022-09-30T19:11:25.094Z,85.10
2022-09-30T19:15:10.725Z,85.40
2022-09-30T19:18:55.222Z,85.00
2022-09-30T19:22:40.183Z,85.00
2022-09-30T19:26:22.206Z,84.80
2022-09-30T19:30:11.931Z,85.60
2022-09-30T19:33:57.036Z,85.30
2022-09-30T19:37:44.256Z,85.30
2022-09-30T19:41:32.343Z,85.40
2022-09-30T19:45:16.701Z,85.40
2022-09-30T19:48:59.400Z,85.20
2022-09-30T19:52:53.511Z,85.20
2022-09-30T19:56:47.516Z,85.50
2022-09-30T20:00:29.897Z,85.60
2022-09-30T20:04:13.329Z,85.20
2022-09-30T20:07:56.831Z,85.30
2022-09-30T20:11:39.648Z,85.10
2022-09-30T20:15:45.950Z,85.50
2022-09-30T20:19:28.987Z,85.30
2022-09-30T20:23:12.238Z,85.30
2022-09-30T20:26:54.379Z,85.80
2022-09-30T20:30:40.083Z,85.60
2022-09-30T20:34:22.121Z,85.70
2022-09-30T20:38:04.753Z,85.60
2022-09-30T20:41:47.764Z,85.70
2022-09-30T20:45:30.356Z,85.80
2022-09-30T20:49:12.375Z,85.80
2022-09-30T20:52:54.373Z,85.80
2022-09-30T20:57:02.738Z,85.80
2022-09-30T21:00:41.098Z,85.80
2022-09-30T21:04:23.052Z,85.70
2022-09-30T21:08:07.596Z,85.80
2022-09-30T21:11:49.632Z,85.80
2022-09-30T21:15:31.735Z,85.70
2022-09-30T21:19:13.691Z,85.60
2022-09-30T21:22:55.900Z,85.60
2022-09-30T21:26:37.855Z,85.90
2022-09-30T21:30:19.963Z,85.80
2022-09-30T21:34:01.972Z,85.80
2022-09-30T21:37:44.178Z,85.90
2022-09-30T21:41:26.179Z,86.10
2022-09-30T21:45:08.895Z,86.20
2022-09-30T21:48:53.872Z,86.20
2022-09-30T21:52:38.197Z,86.40
2022-09-30T21:56:20.160Z,86.40
2022-09-30T22:00:02.465Z,86.40
2022-09-30T22:03:44.515Z,86.70
2022-09-30T22:07:27.855Z,86.70
2022-09-30T22:11:25.121Z,86.60
2022-09-30T22:15:07.742Z,86.40
2022-09-30T22:18:54.516Z,86.70
2022-09-30T22:22:36.461Z,86.60
2022-09-30T22:26:21.536Z,86.80
2022-09-30T22:30:03.767Z,86.80
2022-09-30T22:34:14.826Z,86.70
2022-09-30T22:38:15.126Z,86.70
2022-09-30T22:41:58.350Z,86.60
2022-09-30T22:45:40.797Z,86.60
2022-09-30T22:49:24.465Z,86.50
2022-09-30T22:53:06.539Z,86.60
2022-09-30T22:56:50.476Z,86.50
2022-09-30T23:00:32.378Z,86.50
2022-09-30T23:04:17.525Z,86.60
2022-09-30T23:07:59.592Z,86.50
2022-09-30T23:11:44.318Z,86.30
2022-09-30T23:15:26.267Z,86.00
2022-09-30T23:19:08.221Z,85.90
2022-09-30T23:22:50.181Z,86.20
2022-09-30T23:26:32.073Z,86.40
2022-09-30T23:30:14.143Z,86.60
2022-09-30T23:33:58.233Z,86.80
2022-09-30T23:37:40.699Z,86.90
2022-09-30T23:41:22.631Z,86.90
2022-09-30T23:45:04.754Z,86.90
2022-09-30T23:48:46.702Z,86.90
2022-09-30T23:52:30.463Z,86.90
2022-09-30T23:56:17.841Z,86.90
